sensor_id;sensor_type;location;lat;lon;timestamp;temperature;humidity
43884;DHT22;29544;52.018;5.810;2023-04-01T00:00:44;19.90;55.20
43884;DHT22;29544;52.018;5.810;2023-04-01T00:03:10;19.90;55.20
43884;DHT22;29544;52.018;5.810;2023-04-01T00:05:35;19.80;55.20
43884;DHT22;29544;52.018;5.810;2023-04-01T00:08:01;19.80;55.20
43884;DHT22;29544;52.018;5.810;2023-04-01T00:10:26;19.80;55.20
43884;DHT22;29544;52.018;5.810;2023-04-01T00:12:52;19.80;55.20
43884;DHT22;29544;52.018;5.810;2023-04-01T00:15:18;19.70;55.20
43884;DHT22;29544;52.018;5.810;2023-04-01T00:17:44;19.70;55.20
43884;DHT22;29544;52.018;5.810;2023-04-01T00:20:10;19.70;55.30
43884;DHT22;29544;52.018;5.810;2023-04-01T00:22:36;19.60;55.20
43884;DHT22;29544;52.018;5.810;2023-04-01T00:25:02;19.60;55.30
43884;DHT22;29544;52.018;5.810;2023-04-01T00:27:28;19.60;55.40
43884;DHT22;29544;52.018;5.810;2023-04-01T00:29:53;19.60;55.30
43884;DHT22;29544;52.018;5.810;2023-04-01T00:32:19;19.50;55.30
43884;DHT22;29544;52.018;5.810;2023-04-01T00:34:44;19.50;55.40
43884;DHT22;29544;52.018;5.810;2023-04-01T00:37:10;19.50;55.40
43884;DHT22;29544;52.018;5.810;2023-04-01T00:39:36;19.50;55.50
43884;DHT22;29544;52.018;5.810;2023-04-01T00:42:03;19.50;55.50
43884;DHT22;29544;52.018;5.810;2023-04-01T00:44:30;19.40;55.60
43884;DHT22;29544;52.018;5.810;2023-04-01T00:46:57;19.50;55.50
43884;DHT22;29544;52.018;5.810;2023-04-01T00:49:27;19.40;55.50
43884;DHT22;29544;52.018;5.810;2023-04-01T00:51:55;19.40;55.50
43884;DHT22;29544;52.018;5.810;2023-04-01T00:54:24;19.30;55.50
43884;DHT22;29544;52.018;5.810;2023-04-01T00:56:55;19.40;55.50
43884;DHT22;29544;52.018;5.810;2023-04-01T00:59:30;19.30;55.50
43884;DHT22;29544;52.018;5.810;2023-04-01T01:01:58;19.30;55.60
43884;DHT22;29544;52.018;5.810;2023-04-01T01:04:29;19.30;55.60
43884;DHT22;29544;52.018;5.810;2023-04-01T01:12:14;19.20;55.70
43884;DHT22;29544;52.018;5.810;2023-04-01T01:15:12;19.20;55.70
43884;DHT22;29544;52.018;5.810;2023-04-01T01:31:17;19.10;55.90
43884;DHT22;29544;52.018;5.810;2023-04-01T01:36:33;19.00;55.90
43884;DHT22;29544;52.018;5.810;2023-04-01T01:39:02;19.00;55.90
43884;DHT22;29544;52.018;5.810;2023-04-01T01:41:29;19.10;56.00
43884;DHT22;29544;52.018;5.810;2023-04-01T01:43:56;19.00;56.00
43884;DHT22;29544;52.018;5.810;2023-04-01T01:46:24;18.90;55.90
43884;DHT22;29544;52.018;5.810;2023-04-01T01:48:51;18.90;56.00
43884;DHT22;29544;52.018;5.810;2023-04-01T01:51:19;18.90;56.00
43884;DHT22;29544;52.018;5.810;2023-04-01T01:53:45;18.90;56.10
43884;DHT22;29544;52.018;5.810;2023-04-01T01:56:12;18.90;56.10
43884;DHT22;29544;52.018;5.810;2023-04-01T01:58:44;18.90;56.10
43884;DHT22;29544;52.018;5.810;2023-04-01T02:01:16;18.80;56.10
43884;DHT22;29544;52.018;5.810;2023-04-01T02:03:43;18.80;56.10
43884;DHT22;29544;52.018;5.810;2023-04-01T02:06:13;18.80;56.20
43884;DHT22;29544;52.018;5.810;2023-04-01T02:11:08;18.80;56.20
43884;DHT22;29544;52.018;5.810;2023-04-01T02:13:51;18.80;56.20
43884;DHT22;29544;52.018;5.810;2023-04-01T02:16:26;18.80;56.30
43884;DHT22;29544;52.018;5.810;2023-04-01T02:18:54;18.80;56.30
43884;DHT22;29544;52.018;5.810;2023-04-01T02:21:22;18.70;56.30
43884;DHT22;29544;52.018;5.810;2023-04-01T02:23:50;18.70;56.30
43884;DHT22;29544;52.018;5.810;2023-04-01T02:26:17;18.70;57.00
43884;DHT22;29544;52.018;5.810;2023-04-01T02:28:45;18.70;56.40
43884;DHT22;29544;52.018;5.810;2023-04-01T02:31:13;18.70;56.40
43884;DHT22;29544;52.018;5.810;2023-04-01T02:33:41;18.70;56.40
43884;DHT22;29544;52.018;5.810;2023-04-01T02:36:11;18.70;56.40
43884;DHT22;29544;52.018;5.810;2023-04-01T02:38:37;18.60;56.40
43884;DHT22;29544;52.018;5.810;2023-04-01T02:41:03;18.60;56.40
43884;DHT22;29544;52.018;5.810;2023-04-01T02:43:30;18.60;56.40
43884;DHT22;29544;52.018;5.810;2023-04-01T02:45:56;18.60;56.40
43884;DHT22;29544;52.018;5.810;2023-04-01T02:48:21;18.60;56.50
43884;DHT22;29544;52.018;5.810;2023-04-01T02:50:47;18.60;56.50
43884;DHT22;29544;52.018;5.810;2023-04-01T02:53:12;18.60;56.50
43884;DHT22;29544;52.018;5.810;2023-04-01T02:55:38;18.60;56.60
43884;DHT22;29544;52.018;5.810;2023-04-01T02:58:03;18.50;56.60
43884;DHT22;29544;52.018;5.810;2023-04-01T03:00:29;18.50;56.60
43884;DHT22;29544;52.018;5.810;2023-04-01T03:02:55;18.50;56.60
43884;DHT22;29544;52.018;5.810;2023-04-01T03:05:22;18.50;56.60
43884;DHT22;29544;52.018;5.810;2023-04-01T03:07:47;18.50;56.60
43884;DHT22;29544;52.018;5.810;2023-04-01T03:10:13;18.40;56.60
43884;DHT22;29544;52.018;5.810;2023-04-01T03:12:39;18.50;56.70
43884;DHT22;29544;52.018;5.810;2023-04-01T03:15:05;18.50;56.70
43884;DHT22;29544;52.018;5.810;2023-04-01T03:17:31;18.40;56.70
43884;DHT22;29544;52.018;5.810;2023-04-01T03:19:56;18.40;56.70
43884;DHT22;29544;52.018;5.810;2023-04-01T03:22:22;18.40;56.70
43884;DHT22;29544;52.018;5.810;2023-04-01T03:24:48;18.40;56.70
43884;DHT22;29544;52.018;5.810;2023-04-01T03:27:14;18.40;56.80
43884;DHT22;29544;52.018;5.810;2023-04-01T03:29:40;18.40;56.80
43884;DHT22;29544;52.018;5.810;2023-04-01T03:32:06;18.30;56.80
43884;DHT22;29544;52.018;5.810;2023-04-01T03:34:31;18.40;56.80
43884;DHT22;29544;52.018;5.810;2023-04-01T03:36:57;18.30;56.80
43884;DHT22;29544;52.018;5.810;2023-04-01T03:39:23;18.30;56.80
43884;DHT22;29544;52.018;5.810;2023-04-01T03:41:49;18.30;56.80
43884;DHT22;29544;52.018;5.810;2023-04-01T03:44:14;18.30;56.90
43884;DHT22;29544;52.018;5.810;2023-04-01T03:46:40;18.30;56.90
43884;DHT22;29544;52.018;5.810;2023-04-01T03:49:09;18.30;56.90
43884;DHT22;29544;52.018;5.810;2023-04-01T03:51:42;18.30;56.90
43884;DHT22;29544;52.018;5.810;2023-04-01T03:54:10;18.20;56.90
43884;DHT22;29544;52.018;5.810;2023-04-01T03:56:37;18.20;56.90
43884;DHT22;29544;52.018;5.810;2023-04-01T03:59:04;18.20;56.90
43884;DHT22;29544;52.018;5.810;2023-04-01T04:01:30;18.30;57.00
43884;DHT22;29544;52.018;5.810;2023-04-01T04:03:56;18.20;57.00
43884;DHT22;29544;52.018;5.810;2023-04-01T04:06:23;18.20;57.00
43884;DHT22;29544;52.018;5.810;2023-04-01T04:08:49;18.20;57.00
43884;DHT22;29544;52.018;5.810;2023-04-01T04:11:15;18.20;57.00
43884;DHT22;29544;52.018;5.810;2023-04-01T04:13:40;18.10;57.00
43884;DHT22;29544;52.018;5.810;2023-04-01T04:16:06;18.20;57.10
43884;DHT22;29544;52.018;5.810;2023-04-01T04:18:32;18.20;57.10
43884;DHT22;29544;52.018;5.810;2023-04-01T04:20:58;18.10;57.00
43884;DHT22;29544;52.018;5.810;2023-04-01T04:23:23;18.10;57.10
43884;DHT22;29544;52.018;5.810;2023-04-01T04:25:57;18.10;57.10
43884;DHT22;29544;52.018;5.810;2023-04-01T04:28:24;18.10;57.10
43884;DHT22;29544;52.018;5.810;2023-04-01T04:30:50;18.10;57.10
43884;DHT22;29544;52.018;5.810;2023-04-01T04:33:16;18.10;57.10
43884;DHT22;29544;52.018;5.810;2023-04-01T04:35:41;18.10;57.10
43884;DHT22;29544;52.018;5.810;2023-04-01T04:38:07;18.10;57.20
43884;DHT22;29544;52.018;5.810;2023-04-01T04:40:32;18.10;57.30
43884;DHT22;29544;52.018;5.810;2023-04-01T04:42:58;18.00;57.20
43884;DHT22;29544;52.018;5.810;2023-04-01T04:45:23;18.00;57.20
43884;DHT22;29544;52.018;5.810;2023-04-01T04:47:49;18.00;57.20
43884;DHT22;29544;52.018;5.810;2023-04-01T04:50:14;18.00;57.20
43884;DHT22;29544;52.018;5.810;2023-04-01T04:52:40;18.00;57.30
43884;DHT22;29544;52.018;5.810;2023-04-01T04:55:06;18.00;57.30
43884;DHT22;29544;52.018;5.810;2023-04-01T04:57:31;18.00;57.20
43884;DHT22;29544;52.018;5.810;2023-04-01T04:59:57;18.00;57.30
43884;DHT22;29544;52.018;5.810;2023-04-01T05:02:22;18.00;57.30
43884;DHT22;29544;52.018;5.810;2023-04-01T05:04:48;18.00;57.30
43884;DHT22;29544;52.018;5.810;2023-04-01T05:07:13;18.00;57.40
43884;DHT22;29544;52.018;5.810;2023-04-01T05:09:39;18.00;57.40
43884;DHT22;29544;52.018;5.810;2023-04-01T05:12:05;17.90;57.30
43884;DHT22;29544;52.018;5.810;2023-04-01T05:14:30;17.90;57.30
43884;DHT22;29544;52.018;5.810;2023-04-01T05:16:56;17.90;57.40
43884;DHT22;29544;52.018;5.810;2023-04-01T05:19:21;17.90;57.40
43884;DHT22;29544;52.018;5.810;2023-04-01T05:21:47;17.90;57.40
43884;DHT22;29544;52.018;5.810;2023-04-01T05:24:12;17.90;57.50
43884;DHT22;29544;52.018;5.810;2023-04-01T05:26:38;17.90;57.40
43884;DHT22;29544;52.018;5.810;2023-04-01T05:29:04;17.90;57.50
43884;DHT22;29544;52.018;5.810;2023-04-01T05:31:30;17.80;57.50
43884;DHT22;29544;52.018;5.810;2023-04-01T05:33:56;17.90;57.50
43884;DHT22;29544;52.018;5.810;2023-04-01T05:36:21;17.80;57.50
43884;DHT22;29544;52.018;5.810;2023-04-01T05:38:47;17.80;57.40
43884;DHT22;29544;52.018;5.810;2023-04-01T05:41:16;17.80;58.10
43884;DHT22;29544;52.018;5.810;2023-04-01T05:43:42;17.80;57.50
43884;DHT22;29544;52.018;5.810;2023-04-01T05:46:08;17.80;57.50
43884;DHT22;29544;52.018;5.810;2023-04-01T05:48:33;17.80;57.50
43884;DHT22;29544;52.018;5.810;2023-04-01T05:51:00;17.80;57.50
43884;DHT22;29544;52.018;5.810;2023-04-01T05:53:25;17.80;57.60
43884;DHT22;29544;52.018;5.810;2023-04-01T05:55:51;17.80;57.60
43884;DHT22;29544;52.018;5.810;2023-04-01T05:58:17;17.80;57.60
43884;DHT22;29544;52.018;5.810;2023-04-01T06:00:42;17.80;57.60
43884;DHT22;29544;52.018;5.810;2023-04-01T06:03:08;17.80;57.60
43884;DHT22;29544;52.018;5.810;2023-04-01T06:05:41;17.80;57.70
43884;DHT22;29544;52.018;5.810;2023-04-01T06:08:13;17.80;57.70
43884;DHT22;29544;52.018;5.810;2023-04-01T06:19:08;17.70;57.70
43884;DHT22;29544;52.018;5.810;2023-04-01T06:24:44;17.70;57.70
43884;DHT22;29544;52.018;5.810;2023-04-01T06:27:42;17.70;57.70
43884;DHT22;29544;52.018;5.810;2023-04-01T06:30:31;17.70;57.80
43884;DHT22;29544;52.018;5.810;2023-04-01T06:38:57;17.70;57.80
43884;DHT22;29544;52.018;5.810;2023-04-01T06:44:31;17.60;57.80
43884;DHT22;29544;52.018;5.810;2023-04-01T06:49:58;17.60;57.80
43884;DHT22;29544;52.018;5.810;2023-04-01T06:55:02;17.60;57.90
43884;DHT22;29544;52.018;5.810;2023-04-01T06:57:49;17.60;57.90
43884;DHT22;29544;52.018;5.810;2023-04-01T07:00:37;17.60;58.00
43884;DHT22;29544;52.018;5.810;2023-04-01T07:06:03;17.60;58.00
43884;DHT22;29544;52.018;5.810;2023-04-01T07:08:31;17.60;58.00
43884;DHT22;29544;52.018;5.810;2023-04-01T07:11:04;17.50;57.90
43884;DHT22;29544;52.018;5.810;2023-04-01T07:13:53;17.60;58.00
43884;DHT22;29544;52.018;5.810;2023-04-01T07:16:41;17.50;58.00
43884;DHT22;29544;52.018;5.810;2023-04-01T07:19:26;17.50;58.00
43884;DHT22;29544;52.018;5.810;2023-04-01T07:21:58;17.50;58.00
43884;DHT22;29544;52.018;5.810;2023-04-01T07:24:44;17.50;58.10
43884;DHT22;29544;52.018;5.810;2023-04-01T07:27:13;17.50;58.00
43884;DHT22;29544;52.018;5.810;2023-04-01T07:29:39;17.50;58.00
43884;DHT22;29544;52.018;5.810;2023-04-01T07:37:53;17.50;58.20
43884;DHT22;29544;52.018;5.810;2023-04-01T07:40:42;17.50;58.20
43884;DHT22;29544;52.018;5.810;2023-04-01T07:54:09;17.50;58.30
43884;DHT22;29544;52.018;5.810;2023-04-01T07:56:53;17.40;58.20
43884;DHT22;29544;52.018;5.810;2023-04-01T07:59:39;17.40;58.20
43884;DHT22;29544;52.018;5.810;2023-04-01T08:04:55;17.40;58.30
43884;DHT22;29544;52.018;5.810;2023-04-01T08:07:25;17.50;58.30
43884;DHT22;29544;52.018;5.810;2023-04-01T08:10:04;17.40;58.20
43884;DHT22;29544;52.018;5.810;2023-04-01T08:19:09;17.40;58.30
43884;DHT22;29544;52.018;5.810;2023-04-01T08:21:43;17.40;58.40
43884;DHT22;29544;52.018;5.810;2023-04-01T08:26:53;17.40;58.50
43884;DHT22;29544;52.018;5.810;2023-04-01T08:29:44;17.40;58.40
43884;DHT22;29544;52.018;5.810;2023-04-01T08:32:23;17.40;58.40
43884;DHT22;29544;52.018;5.810;2023-04-01T08:35:46;17.40;58.40
43884;DHT22;29544;52.018;5.810;2023-04-01T08:38:23;17.40;58.40
43884;DHT22;29544;52.018;5.810;2023-04-01T08:46:42;17.40;58.50
43884;DHT22;29544;52.018;5.810;2023-04-01T08:52:41;17.40;58.50
43884;DHT22;29544;52.018;5.810;2023-04-01T08:55:21;17.40;58.50
43884;DHT22;29544;52.018;5.810;2023-04-01T08:58:18;17.40;58.60
43884;DHT22;29544;52.018;5.810;2023-04-01T09:06:12;17.30;58.50
43884;DHT22;29544;52.018;5.810;2023-04-01T09:09:01;17.30;58.50
43884;DHT22;29544;52.018;5.810;2023-04-01T09:12:07;17.30;58.60
43884;DHT22;29544;52.018;5.810;2023-04-01T09:17:38;17.30;58.50
43884;DHT22;29544;52.018;5.810;2023-04-01T09:28:07;17.30;58.60
43884;DHT22;29544;52.018;5.810;2023-04-01T09:37:17;17.30;58.80
43884;DHT22;29544;52.018;5.810;2023-04-01T09:42:43;17.30;58.90
43884;DHT22;29544;52.018;5.810;2023-04-01T09:45:32;17.30;58.80
43884;DHT22;29544;52.018;5.810;2023-04-01T09:51:05;17.30;58.90
43884;DHT22;29544;52.018;5.810;2023-04-01T10:00:32;17.30;58.90
43884;DHT22;29544;52.018;5.810;2023-04-01T10:06:41;17.30;58.90
43884;DHT22;29544;52.018;5.810;2023-04-01T10:15:43;17.30;59.00
43884;DHT22;29544;52.018;5.810;2023-04-01T10:24:08;17.20;58.90
43884;DHT22;29544;52.018;5.810;2023-04-01T10:32:29;17.30;59.70
43884;DHT22;29544;52.018;5.810;2023-04-01T10:38:14;17.30;59.40
43884;DHT22;29544;52.018;5.810;2023-04-01T10:43:46;17.30;59.20
43884;DHT22;29544;52.018;5.810;2023-04-01T10:46:30;17.30;59.30
43884;DHT22;29544;52.018;5.810;2023-04-01T11:03:46;17.30;59.30
43884;DHT22;29544;52.018;5.810;2023-04-01T11:11:55;17.30;59.30
43884;DHT22;29544;52.018;5.810;2023-04-01T11:17:50;17.30;61.30
43884;DHT22;29544;52.018;5.810;2023-04-01T11:26:48;17.50;62.70
43884;DHT22;29544;52.018;5.810;2023-04-01T11:41:20;17.70;62.80
43884;DHT22;29544;52.018;5.810;2023-04-01T11:44:18;17.70;62.90
43884;DHT22;29544;52.018;5.810;2023-04-01T11:50:02;17.80;63.10
43884;DHT22;29544;52.018;5.810;2023-04-01T12:01:36;17.90;63.50
43884;DHT22;29544;52.018;5.810;2023-04-01T12:04:18;17.90;63.50
43884;DHT22;29544;52.018;5.810;2023-04-01T12:13:29;18.00;64.10
43884;DHT22;29544;52.018;5.810;2023-04-01T12:21:37;17.90;63.80
43884;DHT22;29544;52.018;5.810;2023-04-01T12:29:51;17.80;63.70
43884;DHT22;29544;52.018;5.810;2023-04-01T12:35:26;17.80;63.80
43884;DHT22;29544;52.018;5.810;2023-04-01T12:41:02;17.80;63.80
43884;DHT22;29544;52.018;5.810;2023-04-01T12:43:41;17.80;63.70
43884;DHT22;29544;52.018;5.810;2023-04-01T12:49:11;17.80;63.70
43884;DHT22;29544;52.018;5.810;2023-04-01T12:52:10;17.70;63.60
43884;DHT22;29544;52.018;5.810;2023-04-01T13:00:27;17.70;63.60
43884;DHT22;29544;52.018;5.810;2023-04-01T13:06:09;17.70;63.40
43884;DHT22;29544;52.018;5.810;2023-04-01T13:14:56;17.70;63.80
43884;DHT22;29544;52.018;5.810;2023-04-01T13:22:58;17.70;63.60
43884;DHT22;29544;52.018;5.810;2023-04-01T13:28:16;17.60;63.70
43884;DHT22;29544;52.018;5.810;2023-04-01T13:31:05;17.60;63.70
43884;DHT22;29544;52.018;5.810;2023-04-01T13:33:45;17.60;63.70
43884;DHT22;29544;52.018;5.810;2023-04-01T13:36:29;17.60;63.80
43884;DHT22;29544;52.018;5.810;2023-04-01T13:44:37;17.60;63.90
43884;DHT22;29544;52.018;5.810;2023-04-01T13:50:07;17.60;64.00
43884;DHT22;29544;52.018;5.810;2023-04-01T13:52:57;17.60;63.90
43884;DHT22;29544;52.018;5.810;2023-04-01T13:58:20;17.60;64.00
43884;DHT22;29544;52.018;5.810;2023-04-01T14:03:37;17.60;64.20
43884;DHT22;29544;52.018;5.810;2023-04-01T14:06:34;17.60;63.90
43884;DHT22;29544;52.018;5.810;2023-04-01T14:15:10;17.50;64.70
43884;DHT22;29544;52.018;5.810;2023-04-01T14:23:16;17.50;64.40
43884;DHT22;29544;52.018;5.810;2023-04-01T14:48:28;17.40;64.10
43884;DHT22;29544;52.018;5.810;2023-04-01T14:51:02;17.40;64.00
43884;DHT22;29544;52.018;5.810;2023-04-01T14:53:31;17.40;64.00
43884;DHT22;29544;52.018;5.810;2023-04-01T14:56:00;17.40;64.00
43884;DHT22;29544;52.018;5.810;2023-04-01T14:58:47;17.40;64.00
43884;DHT22;29544;52.018;5.810;2023-04-01T15:01:25;17.40;64.10
43884;DHT22;29544;52.018;5.810;2023-04-01T15:04:15;17.40;64.20
43884;DHT22;29544;52.018;5.810;2023-04-01T15:07:09;17.40;64.10
43884;DHT22;29544;52.018;5.810;2023-04-01T15:12:30;17.40;64.10
43884;DHT22;29544;52.018;5.810;2023-04-01T15:15:19;17.40;64.10
43884;DHT22;29544;52.018;5.810;2023-04-01T15:18:09;17.40;64.10
43884;DHT22;29544;52.018;5.810;2023-04-01T15:20:49;17.40;64.00
43884;DHT22;29544;52.018;5.810;2023-04-01T15:23:41;17.40;64.10
43884;DHT22;29544;52.018;5.810;2023-04-01T15:26:21;17.30;64.10
43884;DHT22;29544;52.018;5.810;2023-04-01T15:31:45;17.30;64.00
43884;DHT22;29544;52.018;5.810;2023-04-01T15:37:14;17.30;63.90
43884;DHT22;29544;52.018;5.810;2023-04-01T15:39:44;17.30;63.90
43884;DHT22;29544;52.018;5.810;2023-04-01T15:52:56;17.30;63.90
43884;DHT22;29544;52.018;5.810;2023-04-01T16:03:51;17.30;64.00
43884;DHT22;29544;52.018;5.810;2023-04-01T16:14:52;17.20;63.80
43884;DHT22;29544;52.018;5.810;2023-04-01T16:17:54;17.20;63.70
43884;DHT22;29544;52.018;5.810;2023-04-01T16:20:26;17.20;63.80
43884;DHT22;29544;52.018;5.810;2023-04-01T16:23:18;17.20;63.80
43884;DHT22;29544;52.018;5.810;2023-04-01T16:26:08;17.20;63.80
43884;DHT22;29544;52.018;5.810;2023-04-01T16:31:26;17.20;63.80
43884;DHT22;29544;52.018;5.810;2023-04-01T16:34:36;17.20;63.70
43884;DHT22;29544;52.018;5.810;2023-04-01T16:37:29;17.20;63.70
43884;DHT22;29544;52.018;5.810;2023-04-01T16:45:26;17.10;63.70
43884;DHT22;29544;52.018;5.810;2023-04-01T16:48:14;17.10;63.70
43884;DHT22;29544;52.018;5.810;2023-04-01T16:51:03;17.10;63.60
43884;DHT22;29544;52.018;5.810;2023-04-01T16:53:32;17.10;63.70
43884;DHT22;29544;52.018;5.810;2023-04-01T16:58:33;17.10;63.60
43884;DHT22;29544;52.018;5.810;2023-04-01T17:01:12;17.10;63.60
43884;DHT22;29544;52.018;5.810;2023-04-01T17:03:43;17.10;63.70
43884;DHT22;29544;52.018;5.810;2023-04-01T17:14:09;17.10;63.60
43884;DHT22;29544;52.018;5.810;2023-04-01T17:17:31;17.10;63.60
43884;DHT22;29544;52.018;5.810;2023-04-01T17:19:44;17.00;63.60
43884;DHT22;29544;52.018;5.810;2023-04-01T17:22:25;17.10;63.60
43884;DHT22;29544;52.018;5.810;2023-04-01T17:25:16;17.00;63.50
43884;DHT22;29544;52.018;5.810;2023-04-01T17:30:44;17.00;63.50
43884;DHT22;29544;52.018;5.810;2023-04-01T17:36:38;17.00;63.50
43884;DHT22;29544;52.018;5.810;2023-04-01T17:39:29;17.00;63.50
43884;DHT22;29544;52.018;5.810;2023-04-01T17:42:06;17.00;63.50
43884;DHT22;29544;52.018;5.810;2023-04-01T17:44:50;17.00;63.50
43884;DHT22;29544;52.018;5.810;2023-04-01T17:47:26;17.00;63.50
43884;DHT22;29544;52.018;5.810;2023-04-01T17:50:24;17.00;63.40
43884;DHT22;29544;52.018;5.810;2023-04-01T18:01:09;16.90;63.30
43884;DHT22;29544;52.018;5.810;2023-04-01T18:03:53;16.90;63.30
43884;DHT22;29544;52.018;5.810;2023-04-01T18:12:28;16.90;63.30
43884;DHT22;29544;52.018;5.810;2023-04-01T18:20:54;16.90;63.20
43884;DHT22;29544;52.018;5.810;2023-04-01T18:23:32;16.90;63.20
43884;DHT22;29544;52.018;5.810;2023-04-01T18:26:34;16.90;63.20
43884;DHT22;29544;52.018;5.810;2023-04-01T18:34:57;16.90;63.10
43884;DHT22;29544;52.018;5.810;2023-04-01T18:37:34;16.80;63.10
43884;DHT22;29544;52.018;5.810;2023-04-01T18:45:58;16.80;63.00
43884;DHT22;29544;52.018;5.810;2023-04-01T18:48:48;16.80;63.00
43884;DHT22;29544;52.018;5.810;2023-04-01T18:54:10;16.80;63.00
43884;DHT22;29544;52.018;5.810;2023-04-01T18:56:41;16.80;63.00
43884;DHT22;29544;52.018;5.810;2023-04-01T19:02:16;16.70;62.90
43884;DHT22;29544;52.018;5.810;2023-04-01T19:05:04;16.70;62.90
43884;DHT22;29544;52.018;5.810;2023-04-01T19:10:22;16.70;62.90
43884;DHT22;29544;52.018;5.810;2023-04-01T19:13:10;16.70;62.90
43884;DHT22;29544;52.018;5.810;2023-04-01T19:18:58;16.70;62.90
43884;DHT22;29544;52.018;5.810;2023-04-01T19:24:09;16.70;62.90
43884;DHT22;29544;52.018;5.810;2023-04-01T19:26:53;16.70;62.80
43884;DHT22;29544;52.018;5.810;2023-04-01T19:35:16;16.60;62.70
43884;DHT22;29544;52.018;5.810;2023-04-01T19:38:11;16.60;62.70
43884;DHT22;29544;52.018;5.810;2023-04-01T19:41:00;16.60;62.70
43884;DHT22;29544;52.018;5.810;2023-04-01T19:46:30;16.60;62.70
43884;DHT22;29544;52.018;5.810;2023-04-01T19:51:51;16.60;62.70
43884;DHT22;29544;52.018;5.810;2023-04-01T19:54:45;16.60;62.60
43884;DHT22;29544;52.018;5.810;2023-04-01T19:57:21;16.60;62.60
43884;DHT22;29544;52.018;5.810;2023-04-01T20:00:05;16.60;62.60
43884;DHT22;29544;52.018;5.810;2023-04-01T20:08:22;16.50;62.50
43884;DHT22;29544;52.018;5.810;2023-04-01T20:11:22;16.50;62.50
43884;DHT22;29544;52.018;5.810;2023-04-01T20:14:21;16.50;62.50
43884;DHT22;29544;52.018;5.810;2023-04-01T20:17:06;16.50;62.50
43884;DHT22;29544;52.018;5.810;2023-04-01T20:19:34;16.50;62.40
43884;DHT22;29544;52.018;5.810;2023-04-01T20:22:04;16.50;62.40
43884;DHT22;29544;52.018;5.810;2023-04-01T20:24:42;16.50;62.40
43884;DHT22;29544;52.018;5.810;2023-04-01T20:32:43;16.50;62.40
43884;DHT22;29544;52.018;5.810;2023-04-01T20:35:36;16.50;62.30
43884;DHT22;29544;52.018;5.810;2023-04-01T20:38:40;16.50;62.30
43884;DHT22;29544;52.018;5.810;2023-04-01T20:41:23;16.50;62.30
43884;DHT22;29544;52.018;5.810;2023-04-01T20:44:10;16.50;62.30
43884;DHT22;29544;52.018;5.810;2023-04-01T20:46:52;16.40;62.20
43884;DHT22;29544;52.018;5.810;2023-04-01T21:00:44;16.40;62.10
43884;DHT22;29544;52.018;5.810;2023-04-01T21:03:25;16.40;62.10
43884;DHT22;29544;52.018;5.810;2023-04-01T21:14:51;16.30;61.90
43884;DHT22;29544;52.018;5.810;2023-04-01T21:20:32;16.30;61.90
43884;DHT22;29544;52.018;5.810;2023-04-01T21:23:11;16.30;62.20
43884;DHT22;29544;52.018;5.810;2023-04-01T21:36:58;16.30;61.70
43884;DHT22;29544;52.018;5.810;2023-04-01T21:42:24;16.30;61.60
43884;DHT22;29544;52.018;5.810;2023-04-01T21:48:01;16.20;61.50
43884;DHT22;29544;52.018;5.810;2023-04-01T21:53:30;16.20;61.50
43884;DHT22;29544;52.018;5.810;2023-04-01T22:04:42;16.20;61.40
43884;DHT22;29544;52.018;5.810;2023-04-01T22:07:17;16.20;61.50
43884;DHT22;29544;52.018;5.810;2023-04-01T22:09:51;16.20;61.50
43884;DHT22;29544;52.018;5.810;2023-04-01T22:12:46;16.20;61.40
43884;DHT22;29544;52.018;5.810;2023-04-01T22:17:54;16.20;61.40
43884;DHT22;29544;52.018;5.810;2023-04-01T22:23:24;16.20;61.40
43884;DHT22;29544;52.018;5.810;2023-04-01T22:28:27;16.20;61.20
43884;DHT22;29544;52.018;5.810;2023-04-01T22:30:59;16.20;61.10
43884;DHT22;29544;52.018;5.810;2023-04-01T22:33:34;16.20;61.10
43884;DHT22;29544;52.018;5.810;2023-04-01T22:38:54;16.20;61.20
43884;DHT22;29544;52.018;5.810;2023-04-01T22:52:45;16.20;61.40
43884;DHT22;29544;52.018;5.810;2023-04-01T22:55:27;16.10;61.40
43884;DHT22;29544;52.018;5.810;2023-04-01T22:57:58;16.10;61.40
43884;DHT22;29544;52.018;5.810;2023-04-01T23:00:47;16.10;61.40
43884;DHT22;29544;52.018;5.810;2023-04-01T23:03:30;16.10;61.40
43884;DHT22;29544;52.018;5.810;2023-04-01T23:06:01;16.10;61.40
43884;DHT22;29544;52.018;5.810;2023-04-01T23:14:36;16.10;61.50
43884;DHT22;29544;52.018;5.810;2023-04-01T23:17:17;16.10;61.50
43884;DHT22;29544;52.018;5.810;2023-04-01T23:20:16;16.10;61.50
43884;DHT22;29544;52.018;5.810;2023-04-01T23:28:39;16.10;61.50
43884;DHT22;29544;52.018;5.810;2023-04-01T23:31:35;16.10;61.50
43884;DHT22;29544;52.018;5.810;2023-04-01T23:36:46;16.10;61.50
43884;DHT22;29544;52.018;5.810;2023-04-01T23:42:20;16.10;61.50
43884;DHT22;29544;52.018;5.810;2023-04-01T23:44:51;16.10;61.50
43884;DHT22;29544;52.018;5.810;2023-04-01T23:47:33;16.00;61.50
43884;DHT22;29544;52.018;5.810;2023-04-01T23:50:09;16.10;61.50
43884;DHT22;29544;52.018;5.810;2023-04-01T23:52:43;16.10;61.50
43884;DHT22;29544;52.018;5.810;2023-04-01T23:55:13;16.10;61.50
43884;DHT22;29544;52.018;5.810;2023-04-01T23:57:39;16.10;61.50
